createdAt,value
2023-02-24T00:00:54.481Z,1.60
2023-02-24T00:01:54.481Z,1.30
2023-02-24T00:02:54.457Z,1.40
2023-02-24T00:03:54.432Z,1.30
2023-02-24T00:04:54.431Z,1.40
2023-02-24T00:05:54.410Z,1.50
2023-02-24T00:06:54.400Z,1.50
2023-02-24T00:07:54.395Z,1.50
2023-02-24T00:08:54.398Z,1.40
2023-02-24T00:09:54.374Z,1.60
2023-02-24T00:10:54.377Z,1.30
2023-02-24T00:11:54.349Z,1.50
2023-02-24T00:12:54.343Z,1.30
2023-02-24T00:13:54.333Z,1.40
2023-02-24T00:14:54.315Z,1.50
2023-02-24T00:15:54.303Z,1.50
2023-02-24T00:16:54.430Z,1.40
2023-02-24T00:17:54.285Z,1.50
2023-02-24T00:18:54.274Z,1.40
2023-02-24T00:19:54.276Z,1.40
2023-02-24T00:20:54.245Z,1.50
2023-02-24T00:21:54.263Z,1.50
2023-02-24T00:22:54.232Z,1.50
2023-02-24T00:23:54.232Z,1.20
2023-02-24T00:24:54.203Z,1.30
2023-02-24T00:25:54.183Z,1.30
2023-02-24T00:26:54.182Z,1.20
2023-02-24T00:27:54.161Z,1.50
2023-02-24T00:28:54.170Z,1.50
2023-02-24T00:29:54.157Z,1.30
2023-02-24T00:30:54.230Z,1.30
2023-02-24T00:31:54.307Z,1.40
2023-02-24T00:32:54.154Z,1.40
2023-02-24T00:33:54.100Z,1.30
2023-02-24T00:34:54.736Z,1.40
2023-02-24T00:35:54.082Z,1.50
2023-02-24T00:36:54.073Z,1.50
2023-02-24T00:37:54.060Z,1.50
2023-02-24T00:38:54.054Z,1.40
2023-02-24T00:39:54.044Z,1.30
2023-02-24T00:40:54.027Z,1.40
2023-02-24T00:41:54.015Z,1.50
2023-02-24T00:42:54.019Z,1.40
2023-02-24T00:43:54.001Z,1.20
2023-02-24T00:44:54.055Z,1.20
2023-02-24T00:45:54.007Z,1.30
2023-02-24T00:46:53.967Z,1.50
2023-02-24T00:47:53.949Z,1.20
2023-02-24T00:48:53.949Z,1.50
2023-02-24T00:49:53.931Z,1.20
2023-02-24T00:50:53.929Z,1.10
2023-02-24T00:51:53.934Z,1.50
2023-02-24T00:52:53.901Z,1.00
2023-02-24T00:53:53.879Z,1.10
2023-02-24T00:54:53.877Z,1.40
2023-02-24T00:55:53.860Z,1.40
2023-02-24T00:56:53.880Z,1.50
2023-02-24T00:57:53.856Z,1.20
2023-02-24T00:58:53.841Z,1.30
2023-02-24T00:59:53.821Z,1.40
2023-02-24T01:00:53.824Z,1.10
2023-02-24T01:01:53.810Z,1.50
2023-02-24T01:02:53.786Z,1.30
2023-02-24T01:03:53.796Z,1.40
2023-02-24T01:04:53.779Z,1.20
2023-02-24T01:05:53.744Z,1.50
2023-02-24T01:06:53.834Z,1.50
2023-02-24T01:07:53.727Z,1.40
2023-02-24T01:08:53.730Z,1.40
2023-02-24T01:09:53.701Z,1.40
2023-02-24T01:10:53.695Z,1.20
2023-02-24T01:11:53.724Z,1.40
2023-02-24T01:12:53.684Z,1.20
2023-02-24T01:13:53.656Z,1.30
2023-02-24T01:14:53.670Z,1.40
2023-02-24T01:15:53.641Z,1.40
2023-02-24T01:16:53.643Z,1.30
2023-02-24T01:17:53.629Z,1.40
2023-02-24T01:18:53.606Z,1.30
2023-02-24T01:19:53.600Z,1.40
2023-02-24T01:20:53.590Z,1.10
2023-02-24T01:21:53.603Z,1.20
2023-02-24T01:22:53.620Z,1.30
2023-02-24T01:23:53.561Z,1.30
2023-02-24T01:24:53.560Z,1.20
2023-02-24T01:25:53.545Z,1.40
2023-02-24T01:26:53.518Z,1.40
2023-02-24T01:27:53.526Z,1.30
2023-02-24T01:28:53.494Z,1.30
2023-02-24T01:29:53.493Z,1.30
2023-02-24T01:30:53.598Z,1.30
2023-02-24T01:31:53.673Z,1.40
2023-02-24T01:32:53.759Z,1.40
2023-02-24T01:33:53.440Z,1.30
2023-02-24T01:34:53.528Z,1.30
2023-02-24T01:35:53.416Z,1.10
2023-02-24T01:36:53.408Z,1.30
2023-02-24T01:37:53.393Z,1.30
2023-02-24T01:38:53.399Z,1.20
2023-02-24T01:39:53.389Z,1.40
2023-02-24T01:40:53.385Z,1.40
2023-02-24T01:41:53.353Z,1.60
2023-02-24T01:42:53.353Z,1.40
2023-02-24T01:43:53.340Z,1.30
2023-02-24T01:44:53.335Z,1.20
2023-02-24T01:45:53.310Z,1.40
2023-02-24T01:46:53.413Z,1.30
2023-02-24T01:47:53.320Z,1.30
2023-02-24T01:48:53.282Z,1.20
2023-02-24T01:49:53.276Z,1.40
2023-02-24T01:50:53.286Z,1.00
2023-02-24T01:51:53.256Z,1.30
2023-02-24T01:52:53.247Z,1.10
2023-02-24T01:53:53.233Z,1.30
2023-02-24T01:54:53.229Z,1.40
2023-02-24T01:55:53.230Z,1.40
2023-02-24T01:56:53.199Z,1.30
2023-02-24T01:57:53.187Z,1.30
2023-02-24T01:58:53.192Z,1.40
2023-02-24T01:59:53.183Z,1.20
2023-02-24T02:00:53.162Z,1.30
2023-02-24T02:01:53.277Z,1.20
2023-02-24T02:02:53.339Z,1.20
2023-02-24T02:03:53.139Z,1.30
2023-02-24T02:04:53.115Z,1.20
2023-02-24T02:05:53.116Z,1.70
2023-02-24T02:06:53.099Z,1.40
2023-02-24T02:07:53.082Z,1.30
2023-02-24T02:08:53.077Z,1.70
2023-02-24T02:09:53.063Z,1.40
2023-02-24T02:10:53.047Z,1.10
2023-02-24T02:11:53.062Z,1.40
2023-02-24T02:12:53.021Z,1.20
2023-02-24T02:13:53.210Z,1.20
2023-02-24T02:14:53.004Z,1.20
2023-02-24T02:15:53.094Z,1.10
2023-02-24T02:16:52.990Z,1.20
2023-02-24T02:17:52.979Z,1.30
2023-02-24T02:18:53.042Z,1.10
2023-02-24T02:19:52.960Z,1.30
2023-02-24T02:20:52.944Z,1.30
2023-02-24T02:21:52.936Z,1.20
2023-02-24T02:22:52.934Z,1.40
2023-02-24T02:23:52.910Z,1.40
2023-02-24T02:24:52.909Z,1.10
2023-02-24T02:25:52.886Z,1.20
2023-02-24T02:26:52.897Z,1.20
2023-02-24T02:27:52.878Z,1.30
2023-02-24T02:28:52.851Z,1.00
2023-02-24T02:29:52.866Z,1.10
2023-02-24T02:30:53.008Z,1.60
2023-02-24T02:31:52.881Z,1.20
2023-02-24T02:32:53.039Z,1.30
2023-02-24T02:33:52.806Z,1.10
2023-02-24T02:34:52.835Z,1.30
2023-02-24T02:35:52.785Z,0.90
2023-02-24T02:36:52.762Z,1.10
2023-02-24T02:37:52.763Z,1.20
2023-02-24T02:38:52.738Z,1.40
2023-02-24T02:39:52.774Z,1.30
2023-02-24T02:40:52.744Z,1.60
2023-02-24T02:41:52.722Z,1.40
2023-02-24T02:42:52.697Z,1.20
2023-02-24T02:43:52.692Z,1.10
2023-02-24T02:44:52.681Z,1.30
2023-02-24T02:45:52.701Z,1.20
2023-02-24T02:46:52.688Z,1.40
2023-02-24T02:47:52.644Z,1.00
2023-02-24T02:48:52.638Z,1.40
2023-02-24T02:49:52.630Z,1.40
2023-02-24T02:50:52.607Z,1.40
2023-02-24T02:51:52.611Z,1.20
2023-02-24T02:52:52.624Z,1.20
2023-02-24T02:53:52.591Z,1.50
2023-02-24T02:54:52.563Z,1.30
2023-02-24T02:55:52.564Z,1.30
2023-02-24T02:56:52.549Z,1.10
2023-02-24T02:57:52.539Z,1.20
2023-02-24T02:58:52.529Z,1.00
2023-02-24T02:59:52.518Z,1.10
2023-02-24T03:00:52.533Z,1.00
2023-02-24T03:01:52.494Z,1.30
2023-02-24T03:02:52.486Z,1.00
2023-02-24T03:03:52.478Z,1.20
2023-02-24T03:04:52.561Z,1.30
2023-02-24T03:05:52.465Z,1.20
2023-02-24T03:06:52.434Z,1.50
2023-02-24T03:07:52.444Z,1.40
2023-02-24T03:08:52.415Z,1.10
2023-02-24T03:09:52.429Z,1.20
2023-02-24T03:10:52.400Z,1.00
2023-02-24T03:11:52.395Z,1.30
2023-02-24T03:12:52.383Z,1.20
2023-02-24T03:13:52.392Z,1.10
2023-02-24T03:14:52.434Z,1.00
2023-02-24T03:15:52.391Z,1.50
2023-02-24T03:16:52.416Z,1.40
2023-02-24T03:17:52.327Z,1.00
2023-02-24T03:18:52.311Z,1.30
2023-02-24T03:19:52.309Z,1.00
2023-02-24T03:20:52.301Z,1.20
2023-02-24T03:21:52.297Z,1.30
2023-02-24T03:22:52.282Z,1.20
2023-02-24T03:23:52.275Z,1.00
2023-02-24T03:24:52.255Z,1.00
2023-02-24T03:25:52.256Z,1.20
2023-02-24T03:26:52.245Z,1.10
2023-02-24T03:27:52.236Z,1.20
2023-02-24T03:28:52.214Z,1.10
2023-02-24T03:29:52.211Z,1.00
2023-02-24T03:30:52.225Z,1.00
2023-02-24T03:31:53.009Z,1.30
2023-02-24T03:32:52.271Z,1.20
2023-02-24T03:33:52.179Z,1.10
2023-02-24T03:34:52.156Z,1.30
2023-02-24T03:35:52.160Z,1.00
2023-02-24T03:36:52.142Z,1.10
2023-02-24T03:37:52.124Z,1.40
2023-02-24T03:38:52.110Z,1.10
2023-02-24T03:39:52.101Z,1.00
2023-02-24T03:40:52.136Z,1.10
2023-02-24T03:41:52.096Z,1.20
2023-02-24T03:42:52.071Z,1.70
2023-02-24T03:43:52.055Z,1.20
2023-02-24T03:44:52.062Z,1.00
2023-02-24T03:45:52.095Z,1.00
2023-02-24T03:46:52.041Z,1.20
2023-02-24T03:47:52.050Z,1.10
2023-02-24T03:48:52.015Z,1.00
2023-02-24T03:49:52.006Z,1.20
2023-02-24T03:50:51.994Z,1.00
2023-02-24T03:51:51.984Z,1.20
2023-02-24T03:52:51.971Z,1.10
2023-02-24T03:53:51.956Z,1.00
2023-02-24T03:54:51.941Z,1.10
2023-02-24T03:55:51.942Z,1.20
2023-02-24T03:56:51.919Z,1.10
2023-02-24T03:57:51.911Z,1.20
2023-02-24T03:58:51.903Z,1.50
2023-02-24T03:59:51.894Z,1.10
2023-02-24T04:00:51.888Z,1.30
2023-02-24T04:01:51.889Z,1.20
2023-02-24T04:02:51.888Z,1.00
2023-02-24T04:03:51.864Z,0.90
2023-02-24T04:04:51.917Z,1.00
2023-02-24T04:05:51.835Z,1.10
2023-02-24T04:06:51.817Z,1.50
2023-02-24T04:07:51.810Z,1.20
2023-02-24T04:08:51.794Z,0.90
2023-02-24T04:09:51.784Z,1.00
2023-02-24T04:10:51.780Z,1.10
2023-02-24T04:11:51.768Z,1.20
2023-02-24T04:12:51.814Z,1.10
2023-02-24T04:13:51.745Z,1.30
2023-02-24T04:14:51.731Z,1.10
2023-02-24T04:15:51.768Z,1.10
2023-02-24T04:16:51.736Z,1.00
2023-02-24T04:17:51.714Z,0.90
2023-02-24T04:18:51.703Z,1.10
2023-02-24T04:19:51.713Z,1.00
2023-02-24T04:20:51.670Z,1.00
2023-02-24T04:21:51.668Z,1.20
2023-02-24T04:22:51.667Z,1.20
2023-02-24T04:23:51.645Z,1.00
2023-02-24T04:24:51.646Z,1.20
2023-02-24T04:25:51.621Z,1.00
2023-02-24T04:26:51.614Z,1.00
2023-02-24T04:27:51.618Z,1.20
2023-02-24T04:28:51.599Z,1.20
2023-02-24T04:29:51.588Z,1.10
2023-02-24T04:30:51.686Z,1.10
2023-02-24T04:31:51.801Z,1.00
2023-02-24T04:32:51.649Z,1.10
2023-02-24T04:33:51.552Z,1.10
2023-02-24T04:34:51.533Z,1.10
2023-02-24T04:35:51.530Z,0.90
2023-02-24T04:36:52.415Z,1.20
2023-02-24T04:37:51.495Z,1.00
2023-02-24T04:38:51.486Z,1.50
2023-02-24T04:39:51.483Z,1.10
2023-02-24T04:40:51.465Z,1.00
2023-02-24T04:41:51.464Z,1.10
2023-02-24T04:42:51.448Z,1.10
2023-02-24T04:43:51.448Z,1.10
2023-02-24T04:44:51.421Z,1.10
2023-02-24T04:45:51.425Z,1.00
2023-02-24T04:46:51.393Z,1.00
2023-02-24T04:47:51.433Z,0.90
2023-02-24T04:48:51.384Z,1.00
2023-02-24T04:49:51.378Z,1.10
2023-02-24T04:50:51.384Z,1.20
2023-02-24T04:51:51.353Z,1.30
2023-02-24T04:52:51.334Z,1.20
2023-02-24T04:53:51.332Z,1.20
2023-02-24T04:54:51.323Z,1.20
2023-02-24T04:55:51.324Z,1.00
2023-02-24T04:56:51.302Z,1.20
2023-02-24T04:57:51.295Z,1.00
2023-02-24T04:58:51.287Z,1.20
2023-02-24T04:59:51.275Z,1.10
2023-02-24T05:00:51.259Z,1.00
2023-02-24T05:01:51.284Z,1.10
2023-02-24T05:02:51.232Z,1.10
2023-02-24T05:03:51.303Z,1.20
2023-02-24T05:04:51.329Z,1.20
2023-02-24T05:05:51.220Z,1.10
2023-02-24T05:06:51.200Z,1.00
2023-02-24T05:07:51.188Z,1.00
2023-02-24T05:08:51.182Z,1.00
2023-02-24T05:09:51.172Z,1.00
2023-02-24T05:10:51.169Z,0.90
2023-02-24T05:11:51.166Z,0.90
2023-02-24T05:12:51.153Z,1.30
2023-02-24T05:13:51.141Z,1.00
2023-02-24T05:14:51.119Z,1.10
2023-02-24T05:15:51.179Z,1.10
2023-02-24T05:16:51.115Z,0.90
2023-02-24T05:17:51.093Z,1.20
2023-02-24T05:18:51.084Z,1.20
2023-02-24T05:19:51.067Z,1.10
2023-02-24T05:20:51.054Z,1.20
2023-02-24T05:21:51.057Z,1.20
2023-02-24T05:22:51.046Z,0.90
2023-02-24T05:23:51.084Z,1.10
2023-02-24T05:24:51.023Z,0.90
2023-02-24T05:25:51.043Z,1.00
2023-02-24T05:26:50.983Z,0.80
2023-02-24T05:27:50.978Z,0.90
2023-02-24T05:28:50.976Z,1.10
2023-02-24T05:29:50.958Z,0.90
2023-02-24T05:30:50.998Z,1.00
2023-02-24T05:31:51.153Z,1.10
2023-02-24T05:32:50.929Z,1.10
2023-02-24T05:33:50.924Z,1.30
2023-02-24T05:34:50.902Z,1.10
2023-02-24T05:35:50.900Z,1.10
2023-02-24T05:36:50.874Z,1.00
2023-02-24T05:37:50.872Z,1.00
2023-02-24T05:38:50.869Z,0.90
2023-02-24T05:39:50.845Z,0.90
2023-02-24T05:40:50.832Z,1.20
2023-02-24T05:41:50.827Z,1.20
2023-02-24T05:42:50.851Z,0.80
2023-02-24T05:43:50.799Z,1.30
2023-02-24T05:44:50.790Z,1.10
2023-02-24T05:45:50.779Z,0.90
2023-02-24T05:46:50.776Z,0.90
2023-02-24T05:47:50.750Z,1.20
2023-02-24T05:48:50.741Z,1.00
2023-02-24T05:49:50.746Z,1.00
2023-02-24T05:51:43.690Z,0.80
2023-02-24T05:52:44.644Z,1.30
2023-02-24T05:53:44.636Z,1.00
2023-02-24T05:54:44.620Z,1.00
2023-02-24T05:55:44.602Z,1.00
2023-02-24T05:56:44.565Z,0.90
2023-02-24T05:57:44.589Z,0.90
2023-02-24T05:58:44.581Z,1.10
2023-02-24T05:59:44.590Z,1.10
2023-02-24T06:00:44.548Z,0.90
2023-02-24T06:01:44.542Z,1.10
2023-02-24T06:02:44.542Z,0.90
2023-02-24T06:03:44.465Z,0.80
2023-02-24T06:04:44.459Z,1.10
2023-02-24T06:05:44.456Z,1.10
2023-02-24T06:06:44.427Z,1.00
2023-02-24T06:07:44.412Z,0.90
2023-02-24T06:08:44.431Z,1.00
2023-02-24T06:09:44.399Z,0.90
2023-02-24T06:10:44.387Z,1.00
2023-02-24T06:11:44.454Z,0.90
2023-02-24T06:12:44.388Z,1.40
2023-02-24T06:13:44.377Z,1.00
2023-02-24T06:14:44.395Z,0.80
2023-02-24T06:15:44.378Z,0.90
2023-02-24T06:16:44.439Z,0.90
2023-02-24T06:17:44.356Z,1.10
2023-02-24T06:18:44.321Z,1.20
2023-02-24T06:19:44.282Z,0.80
2023-02-24T06:20:44.296Z,1.00
2023-02-24T06:21:44.333Z,1.10
2023-02-24T06:22:44.285Z,1.20
2023-02-24T06:23:44.238Z,1.20
2023-02-24T06:24:44.240Z,1.00
2023-02-24T06:25:44.231Z,1.10
2023-02-24T06:26:44.229Z,0.80
2023-02-24T06:27:44.213Z,1.10
2023-02-24T06:28:44.193Z,0.90
2023-02-24T06:29:44.174Z,0.90
2023-02-24T06:30:44.235Z,0.90
2023-02-24T06:31:44.388Z,1.00
2023-02-24T06:32:44.244Z,0.90
2023-02-24T06:33:44.141Z,0.90
2023-02-24T06:34:44.121Z,1.00
2023-02-24T06:35:44.118Z,0.80
2023-02-24T06:36:44.100Z,1.00
2023-02-24T06:37:44.101Z,1.10
2023-02-24T06:38:44.093Z,0.80
2023-02-24T06:39:44.077Z,1.00
2023-02-24T06:40:44.074Z,1.10
2023-02-24T06:41:44.051Z,1.00
2023-02-24T06:42:44.049Z,1.10
2023-02-24T06:43:44.083Z,1.00
2023-02-24T06:44:44.037Z,0.80
2023-02-24T06:45:44.046Z,1.10
2023-02-24T06:46:44.012Z,0.90
2023-02-24T06:47:44.033Z,1.00
2023-02-24T06:48:43.994Z,0.70
2023-02-24T06:49:43.991Z,0.90
2023-02-24T06:50:43.953Z,0.90
2023-02-24T06:51:43.949Z,1.00
2023-02-24T06:52:43.948Z,1.00
2023-02-24T06:53:43.929Z,0.80
2023-02-24T06:54:43.943Z,0.80
2023-02-24T06:55:43.896Z,0.90
2023-02-24T06:56:43.889Z,1.00
2023-02-24T06:57:43.872Z,0.90
2023-02-24T06:58:43.879Z,0.90
2023-02-24T06:59:43.856Z,0.80
2023-02-24T07:00:43.864Z,0.70
2023-02-24T07:01:43.837Z,0.90
2023-02-24T07:02:43.824Z,1.00
2023-02-24T07:03:43.811Z,1.00
2023-02-24T07:04:44.136Z,1.20
2023-02-24T07:05:43.803Z,0.90
2023-02-24T07:06:43.791Z,1.00
2023-02-24T07:07:43.794Z,0.90
2023-02-24T07:08:43.762Z,1.10
2023-02-24T07:09:43.756Z,0.90
2023-02-24T07:10:43.743Z,0.90
2023-02-24T07:11:46.608Z,1.10
2023-02-24T07:12:43.737Z,1.10
2023-02-24T07:13:43.720Z,0.60
2023-02-24T07:14:43.705Z,1.20
2023-02-24T07:15:43.688Z,0.90
2023-02-24T07:16:43.690Z,0.90
2023-02-24T07:17:43.676Z,0.90
2023-02-24T07:18:43.657Z,1.00
2023-02-24T07:19:43.662Z,0.80
2023-02-24T07:20:43.647Z,1.00
2023-02-24T07:21:43.620Z,0.70
2023-02-24T07:22:43.616Z,0.90
2023-02-24T07:23:43.610Z,0.90
2023-02-24T07:24:43.626Z,0.70
2023-02-24T07:25:43.606Z,1.00
2023-02-24T07:26:43.575Z,0.90
2023-02-24T07:27:43.565Z,1.00
2023-02-24T07:28:43.554Z,1.10
2023-02-24T07:29:43.538Z,0.90
2023-02-24T07:30:43.588Z,1.00
2023-02-24T07:31:43.700Z,0.70
2023-02-24T07:32:43.558Z,0.70
2023-02-24T07:33:43.503Z,0.90
2023-02-24T07:34:43.487Z,1.00
2023-02-24T07:35:43.483Z,0.80
2023-02-24T07:36:43.465Z,1.10
2023-02-24T07:37:43.460Z,0.80
2023-02-24T07:38:43.444Z,1.00
2023-02-24T07:39:43.433Z,0.80
2023-02-24T07:40:43.432Z,0.90
2023-02-24T07:41:43.403Z,0.80
2023-02-24T07:42:43.407Z,1.00
2023-02-24T07:43:43.384Z,1.00
2023-02-24T07:44:43.402Z,0.90
2023-02-24T07:45:43.414Z,1.00
2023-02-24T07:46:43.369Z,0.80
2023-02-24T07:47:43.348Z,0.60
2023-02-24T07:48:43.350Z,1.10
2023-02-24T07:49:43.322Z,1.10
2023-02-24T07:50:43.311Z,0.80
2023-02-24T07:51:43.309Z,0.80
2023-02-24T07:52:43.300Z,1.00
2023-02-24T07:53:43.273Z,1.00
2023-02-24T07:54:43.297Z,1.20
2023-02-24T07:55:43.269Z,0.90
2023-02-24T07:56:43.259Z,1.00
2023-02-24T07:57:43.237Z,1.00
2023-02-24T07:58:43.243Z,0.80
2023-02-24T07:59:43.228Z,0.90
2023-02-24T08:00:43.217Z,1.00
2023-02-24T08:01:43.252Z,0.80
2023-02-24T08:02:43.247Z,0.70
2023-02-24T08:03:43.169Z,0.70
2023-02-24T08:04:43.164Z,1.00
2023-02-24T08:05:43.305Z,0.80
2023-02-24T08:06:44.514Z,0.80
2023-02-24T08:07:43.141Z,0.80
2023-02-24T08:08:43.131Z,1.00
2023-02-24T08:09:43.196Z,1.00
2023-02-24T08:10:43.100Z,1.00
2023-02-24T08:11:43.124Z,0.80
2023-02-24T08:12:43.172Z,0.80
2023-02-24T08:13:43.062Z,0.90
2023-02-24T08:14:43.063Z,0.80
2023-02-24T08:15:43.105Z,1.00
2023-02-24T08:16:43.052Z,0.90
2023-02-24T08:17:43.025Z,0.90
2023-02-24T08:18:43.971Z,0.90
2023-02-24T08:19:43.004Z,1.00
2023-02-24T08:20:43.009Z,0.80
2023-02-24T08:21:42.981Z,0.80
2023-02-24T08:22:42.989Z,0.80
2023-02-24T08:23:42.974Z,0.90
2023-02-24T08:24:42.958Z,1.00
2023-02-24T08:25:42.953Z,0.90
2023-02-24T08:26:42.989Z,0.70
2023-02-24T08:27:42.957Z,1.30
2023-02-24T08:28:42.909Z,0.90
2023-02-24T08:29:42.909Z,1.00
2023-02-24T08:30:42.973Z,1.00
2023-02-24T08:31:43.089Z,0.80
2023-02-24T08:32:42.937Z,0.70
2023-02-24T08:33:42.864Z,0.90
2023-02-24T08:34:42.870Z,1.00
2023-02-24T08:35:42.860Z,0.80
2023-02-24T08:36:42.825Z,1.00
2023-02-24T08:37:42.811Z,0.60
2023-02-24T08:38:42.808Z,0.70
2023-02-24T08:39:42.803Z,0.80
2023-02-24T08:40:42.789Z,1.00
2023-02-24T08:41:42.797Z,0.90
2023-02-24T08:42:42.766Z,0.80
2023-02-24T08:43:42.759Z,0.90
2023-02-24T08:44:42.736Z,1.00
2023-02-24T08:45:42.771Z,1.10
2023-02-24T08:46:42.769Z,0.90
2023-02-24T08:47:42.709Z,0.90
2023-02-24T08:48:42.711Z,0.80
2023-02-24T08:49:42.682Z,0.90
2023-02-24T08:50:42.704Z,0.70
2023-02-24T08:51:42.666Z,1.30
2023-02-24T08:52:42.659Z,0.90
2023-02-24T08:53:42.645Z,0.80
2023-02-24T08:54:42.649Z,0.70
2023-02-24T08:55:42.626Z,0.80
2023-02-24T08:56:42.628Z,1.00
2023-02-24T08:57:42.602Z,0.90
2023-02-24T08:58:42.601Z,0.60
2023-02-24T08:59:42.581Z,0.80
2023-02-24T09:00:42.626Z,0.90
2023-02-24T09:01:44.091Z,0.70
2023-02-24T09:02:42.591Z,0.80
2023-02-24T09:03:42.547Z,1.00
2023-02-24T09:04:42.620Z,0.80
2023-02-24T09:05:42.534Z,0.80
2023-02-24T09:06:42.637Z,1.00
2023-02-24T09:07:42.537Z,0.70
2023-02-24T09:08:42.502Z,0.70
2023-02-24T09:09:42.580Z,1.00
2023-02-24T09:10:42.468Z,1.00
2023-02-24T09:11:42.465Z,0.80
2023-02-24T09:12:42.471Z,0.80
2023-02-24T09:13:42.442Z,1.00
2023-02-24T09:14:42.432Z,0.70
2023-02-24T09:15:42.422Z,0.60
2023-02-24T09:16:42.429Z,0.80
2023-02-24T09:17:42.420Z,0.70
2023-02-24T09:18:42.408Z,0.80
2023-02-24T09:19:42.379Z,0.90
2023-02-24T09:20:42.369Z,0.90
2023-02-24T09:21:42.360Z,0.70
2023-02-24T09:22:42.345Z,0.80
2023-02-24T09:23:43.015Z,0.80
2023-02-24T09:24:42.355Z,0.80
2023-02-24T09:25:42.328Z,1.00
2023-02-24T09:26:42.311Z,0.60
2023-02-24T09:27:42.343Z,1.10
2023-02-24T09:28:42.314Z,0.80
2023-02-24T09:29:42.274Z,0.90
2023-02-24T09:30:42.368Z,0.60
2023-02-24T09:31:42.495Z,0.70
2023-02-24T09:32:42.405Z,0.80
2023-02-24T09:33:42.418Z,0.80
2023-02-24T09:34:42.223Z,0.80
2023-02-24T09:35:42.234Z,0.90
2023-02-24T09:36:42.691Z,0.80
2023-02-24T09:37:42.202Z,0.90
2023-02-24T09:38:42.172Z,1.00
2023-02-24T09:39:42.169Z,0.90
2023-02-24T09:40:42.156Z,0.50
2023-02-24T09:41:42.176Z,0.90
2023-02-24T09:42:42.186Z,0.90
2023-02-24T09:43:42.140Z,1.00
2023-02-24T09:44:42.108Z,0.90
2023-02-24T09:45:42.298Z,0.70
2023-02-24T09:46:42.120Z,0.70
2023-02-24T09:47:42.093Z,0.90
2023-02-24T09:48:42.064Z,0.90
2023-02-24T09:49:42.055Z,0.60
2023-02-24T09:51:01.550Z,1.10
2023-02-24T09:51:42.045Z,0.80
2023-02-24T09:52:42.036Z,1.10
2023-02-24T09:53:42.013Z,0.80
2023-02-24T09:54:42.031Z,0.80
2023-02-24T09:55:41.989Z,0.90
2023-02-24T09:56:41.973Z,0.80
2023-02-24T09:57:41.993Z,0.90
2023-02-24T09:58:44.092Z,0.90
2023-02-24T09:59:41.962Z,0.90
2023-02-24T10:00:41.941Z,1.00
2023-02-24T10:01:41.930Z,0.70
2023-02-24T10:02:42.040Z,1.10
2023-02-24T10:03:41.902Z,1.10
2023-02-24T10:04:41.906Z,0.80
2023-02-24T10:05:41.887Z,1.00
2023-02-24T10:06:41.866Z,0.90
2023-02-24T10:07:41.870Z,0.70
2023-02-24T10:08:41.849Z,0.80
2023-02-24T10:09:41.861Z,1.00
2023-02-24T10:10:41.912Z,0.70
2023-02-24T10:11:41.829Z,0.70
2023-02-24T10:12:41.803Z,0.80
2023-02-24T10:13:41.795Z,0.60
2023-02-24T10:14:43.989Z,0.90
2023-02-24T10:15:41.785Z,1.00
2023-02-24T10:16:41.916Z,0.90
2023-02-24T10:17:41.994Z,0.80
2023-02-24T10:18:41.772Z,0.70
2023-02-24T10:19:41.742Z,0.60
2023-02-24T10:20:41.749Z,0.80
2023-02-24T10:21:41.715Z,0.80
2023-02-24T10:22:41.734Z,0.70
2023-02-24T10:23:43.327Z,0.70
2023-02-24T10:24:41.680Z,0.80
2023-02-24T10:25:41.684Z,0.80
2023-02-24T10:26:45.476Z,0.70
2023-02-24T10:27:41.670Z,0.80
2023-02-24T10:28:41.669Z,0.70
2023-02-24T10:29:41.633Z,1.00
2023-02-24T10:30:41.693Z,0.90
2023-02-24T10:31:41.862Z,0.90
2023-02-24T10:32:41.651Z,1.00
2023-02-24T10:33:41.591Z,0.90
2023-02-24T10:34:41.584Z,1.00
2023-02-24T10:35:41.571Z,1.00
2023-02-24T10:36:41.549Z,0.80
2023-02-24T10:37:41.548Z,0.90
2023-02-24T10:38:41.582Z,1.00
2023-02-24T10:39:41.527Z,0.70
2023-02-24T10:40:41.506Z,0.80
2023-02-24T10:41:41.552Z,0.60
2023-02-24T10:42:41.553Z,1.00
2023-02-24T10:43:41.570Z,0.80
2023-02-24T10:44:43.325Z,0.80
2023-02-24T10:45:41.476Z,0.70
2023-02-24T10:46:43.139Z,0.90
2023-02-24T10:47:41.436Z,0.80
2023-02-24T10:48:42.584Z,0.70
2023-02-24T10:49:41.413Z,1.00
2023-02-24T10:50:50.317Z,0.80
2023-02-24T10:51:41.410Z,1.10
2023-02-24T10:52:41.385Z,0.60
2023-02-24T10:53:41.413Z,0.90
2023-02-24T10:54:41.358Z,1.00
2023-02-24T10:55:41.449Z,0.50
2023-02-24T10:56:41.341Z,1.00
2023-02-24T10:57:53.529Z,1.00
2023-02-24T10:58:41.336Z,1.00
2023-02-24T10:59:41.472Z,0.90
2023-02-24T11:00:41.304Z,0.70
2023-02-24T11:01:41.359Z,0.90
2023-02-24T11:02:41.307Z,1.30
2023-02-24T11:03:41.285Z,0.70
2023-02-24T11:04:41.255Z,0.90
2023-02-24T11:05:41.242Z,0.80
2023-02-24T11:06:41.299Z,0.70
2023-02-24T11:07:41.224Z,0.70
2023-02-24T11:08:41.211Z,0.80
2023-02-24T11:09:41.202Z,0.70
2023-02-24T11:10:41.201Z,0.80
2023-02-24T11:11:41.190Z,0.70
2023-02-24T11:12:41.168Z,0.80
2023-02-24T11:13:41.165Z,0.80
2023-02-24T11:14:41.213Z,0.60
2023-02-24T11:15:43.412Z,1.00
2023-02-24T11:16:41.121Z,0.70
2023-02-24T11:17:41.154Z,0.80
2023-02-24T11:18:41.151Z,0.90
2023-02-24T11:19:41.108Z,0.80
2023-02-24T11:20:49.109Z,0.80
2023-02-24T11:21:42.780Z,0.80
2023-02-24T11:22:41.059Z,0.90
2023-02-24T11:23:41.056Z,0.90
2023-02-24T11:24:41.094Z,0.60
2023-02-24T11:25:41.050Z,0.60
2023-02-24T11:26:41.013Z,0.70
2023-02-24T11:27:41.015Z,1.20
2023-02-24T11:28:41.009Z,0.80
2023-02-24T11:29:40.998Z,0.60
2023-02-24T11:30:41.079Z,1.00
2023-02-24T11:31:41.282Z,0.70
2023-02-24T11:32:40.987Z,0.80
2023-02-24T11:33:40.952Z,0.90
2023-02-24T11:34:40.956Z,0.60
2023-02-24T11:35:40.924Z,1.00
2023-02-24T11:36:40.907Z,0.90
2023-02-24T11:37:43.096Z,0.60
2023-02-24T11:38:40.899Z,0.70
2023-02-24T11:39:40.912Z,0.70
2023-02-24T11:40:40.876Z,0.60
2023-02-24T11:41:40.888Z,0.80
2023-02-24T11:42:40.872Z,0.60
2023-02-24T11:43:40.843Z,0.60
2023-02-24T11:44:40.830Z,0.90
2023-02-24T11:45:40.873Z,0.70
2023-02-24T11:46:40.877Z,0.90
2023-02-24T11:47:40.802Z,0.80
2023-02-24T11:48:40.858Z,0.90
2023-02-24T11:49:40.768Z,0.70
2023-02-24T11:50:40.765Z,0.70
2023-02-24T11:51:40.762Z,0.80
2023-02-24T11:52:40.860Z,0.90
2023-02-24T11:53:40.736Z,0.60
2023-02-24T11:54:40.713Z,0.80
2023-02-24T11:55:40.713Z,0.70
2023-02-24T11:56:40.706Z,0.70
2023-02-24T11:57:40.713Z,0.80
2023-02-24T11:58:40.680Z,1.00
2023-02-24T11:59:40.680Z,0.80
2023-02-24T12:00:40.653Z,0.90
2023-02-24T12:01:40.657Z,0.80
2023-02-24T12:02:40.713Z,0.70
2023-02-24T12:03:40.631Z,0.70
2023-02-24T12:04:40.609Z,0.80
2023-02-24T12:05:40.673Z,0.80
2023-02-24T12:06:40.600Z,0.60
2023-02-24T12:07:40.590Z,0.70
2023-02-24T12:08:40.570Z,0.70
2023-02-24T12:09:40.569Z,0.90
2023-02-24T12:10:40.569Z,0.80
2023-02-24T12:11:40.541Z,0.70
2023-02-24T12:12:40.524Z,0.90
2023-02-24T12:13:40.524Z,0.70
2023-02-24T12:14:40.511Z,0.50
2023-02-24T12:15:40.567Z,0.70
2023-02-24T12:16:40.620Z,0.60
2023-02-24T12:17:40.479Z,1.00
2023-02-24T12:18:40.466Z,0.70
2023-02-24T12:19:40.462Z,0.60
2023-02-24T12:20:40.485Z,0.70
2023-02-24T12:21:40.436Z,0.80
2023-02-24T12:22:40.416Z,0.60
2023-02-24T12:23:40.491Z,0.60
2023-02-24T12:24:40.425Z,0.80
2023-02-24T12:25:40.392Z,0.60
2023-02-24T12:26:40.394Z,0.80
2023-02-24T12:27:40.377Z,0.80
2023-02-24T12:28:40.351Z,0.70
2023-02-24T12:29:40.356Z,0.70
2023-02-24T12:30:40.385Z,0.70
2023-02-24T12:31:40.396Z,0.70
2023-02-24T12:32:41.101Z,0.60
2023-02-24T12:33:40.304Z,0.80
2023-02-24T12:34:40.291Z,0.80
2023-02-24T12:35:40.290Z,0.80
2023-02-24T12:36:40.269Z,0.70
2023-02-24T12:37:40.261Z,0.80
2023-02-24T12:38:40.252Z,0.70
2023-02-24T12:39:40.267Z,0.70
2023-02-24T12:40:40.236Z,0.60
2023-02-24T12:41:40.221Z,0.70
2023-02-24T12:42:40.232Z,0.90
2023-02-24T12:43:40.203Z,0.70
2023-02-24T12:44:40.185Z,0.80
2023-02-24T12:45:40.186Z,0.80
2023-02-24T12:46:40.177Z,0.80
2023-02-24T12:47:40.153Z,0.80
2023-02-24T12:48:40.141Z,0.80
2023-02-24T12:49:40.146Z,0.50
2023-02-24T12:50:40.133Z,0.80
2023-02-24T12:51:40.114Z,0.90
2023-02-24T12:52:40.097Z,0.70
2023-02-24T12:53:40.089Z,0.60
2023-02-24T12:54:40.151Z,0.90
2023-02-24T12:55:40.116Z,0.80
2023-02-24T12:56:40.058Z,0.70
2023-02-24T12:57:40.042Z,0.70
2023-02-24T12:58:40.062Z,0.80
2023-02-24T12:59:40.036Z,0.70
2023-02-24T13:00:40.050Z,0.70
2023-02-24T13:01:40.096Z,0.80
2023-02-24T13:02:40.066Z,0.80
2023-02-24T13:03:39.978Z,0.70
2023-02-24T13:04:39.990Z,0.70
2023-02-24T13:05:39.973Z,0.50
2023-02-24T13:06:39.943Z,0.80
2023-02-24T13:07:39.947Z,0.90
2023-02-24T13:08:39.930Z,0.70
2023-02-24T13:09:39.923Z,1.00
2023-02-24T13:10:39.905Z,0.80
2023-02-24T13:11:39.888Z,0.80
2023-02-24T13:12:39.877Z,0.60
2023-02-24T13:13:39.888Z,0.90
2023-02-24T13:14:39.863Z,0.80
2023-02-24T13:15:39.855Z,0.90
2023-02-24T13:16:39.916Z,0.70
2023-02-24T13:17:39.829Z,0.90
2023-02-24T13:18:39.841Z,0.70
2023-02-24T13:19:39.818Z,0.80